createdAt,value
2017-04-14T00:00:08.299Z,5.3
2017-04-14T00:01:10.804Z,5.4
2017-04-14T00:02:13.158Z,5.4
2017-04-14T00:03:15.507Z,5.5
2017-04-14T00:04:17.912Z,5.4
2017-04-14T00:05:20.294Z,5.4
2017-04-14T00:06:22.671Z,5.4
2017-04-14T00:07:25.080Z,5.5
2017-04-14T00:08:27.574Z,5.5
2017-04-14T00:09:29.974Z,5.4
2017-04-14T00:10:32.381Z,5.4
2017-04-14T00:11:34.753Z,5.3
2017-04-14T00:12:37.260Z,5.4
2017-04-14T00:13:39.656Z,5.3
2017-04-14T00:14:42.022Z,5.3
2017-04-14T00:15:44.582Z,5.3
2017-04-14T00:16:47.018Z,5.3
2017-04-14T00:17:49.780Z,5.3
2017-04-14T00:18:52.212Z,5.1
2017-04-14T00:19:54.676Z,5.3
2017-04-14T00:20:57.065Z,5.2
2017-04-14T00:21:59.532Z,5.3
2017-04-14T00:23:01.995Z,5.3
2017-04-14T00:24:04.414Z,5.2
2017-04-14T00:25:06.857Z,5
2017-04-14T00:26:09.294Z,4.9
2017-04-14T00:27:11.696Z,5
2017-04-14T00:28:14.112Z,5
2017-04-14T00:29:16.599Z,5
2017-04-14T00:30:19.742Z,5.1
2017-04-14T00:31:22.180Z,5.1
2017-04-14T00:32:24.614Z,5.2
2017-04-14T00:33:27.023Z,5.2
2017-04-14T00:34:29.465Z,5.1
2017-04-14T00:35:31.892Z,5
2017-04-14T00:36:34.245Z,5
2017-04-14T00:37:36.674Z,5.1
2017-04-14T00:38:39.103Z,5.1
2017-04-14T00:39:41.500Z,5
2017-04-14T00:40:43.924Z,4.9
2017-04-14T00:41:46.336Z,4.7
2017-04-14T00:42:49.432Z,4.7
2017-04-14T00:43:51.850Z,4.7
2017-04-14T00:44:54.263Z,4.7
2017-04-14T00:45:56.655Z,4.7
2017-04-14T00:46:59.673Z,4.7
2017-04-14T00:48:02.107Z,4.8
2017-04-14T00:49:04.559Z,4.7
2017-04-14T00:50:06.983Z,4.7
2017-04-14T00:51:09.377Z,4.7
2017-04-14T00:52:11.771Z,4.6
2017-04-14T00:53:14.937Z,4.7
2017-04-14T00:54:17.881Z,4.7
2017-04-14T00:55:20.268Z,4.8
2017-04-14T00:56:22.657Z,4.6
2017-04-14T00:57:25.051Z,4.7
2017-04-14T00:58:27.488Z,4.7
2017-04-14T00:59:29.898Z,4.6
2017-04-14T01:00:32.302Z,4.6
2017-04-14T01:01:34.683Z,4.6
2017-04-14T01:02:37.075Z,4.5
2017-04-14T01:03:39.479Z,4.6
2017-04-14T01:04:41.834Z,4.5
2017-04-14T01:05:44.214Z,4.4
2017-04-14T01:06:46.614Z,4.5
2017-04-14T01:07:49.061Z,4.3
2017-04-14T01:08:51.473Z,4.4
2017-04-14T01:09:53.818Z,4.4
2017-04-14T01:10:56.197Z,4.3
2017-04-14T01:11:59.371Z,4.2
2017-04-14T01:13:01.816Z,4.3
2017-04-14T01:14:04.190Z,4.3
2017-04-14T01:15:06.594Z,4.2
2017-04-14T01:16:09.083Z,4.2
2017-04-14T01:17:12.000Z,4.2
2017-04-14T01:18:14.378Z,4.2
2017-04-14T01:19:17.051Z,4.3
2017-04-14T01:20:19.435Z,4.3
2017-04-14T01:21:21.847Z,4.3
2017-04-14T01:22:24.302Z,4.3
2017-04-14T01:23:26.694Z,4.4
2017-04-14T01:24:29.105Z,4.5
2017-04-14T01:25:31.486Z,4.5
2017-04-14T01:26:33.894Z,4.5
2017-04-14T01:27:36.279Z,4.6
2017-04-14T01:28:38.689Z,4.7
2017-04-14T01:29:41.048Z,4.7
2017-04-14T01:30:43.429Z,4.8
2017-04-14T01:31:45.859Z,4.8
2017-04-14T01:32:48.250Z,4.9
2017-04-14T01:33:50.656Z,4.9
2017-04-14T01:34:53.057Z,4.9
2017-04-14T01:35:55.406Z,4.9
2017-04-14T01:36:57.855Z,4.9
2017-04-14T01:38:00.305Z,5
2017-04-14T01:39:02.729Z,5.1
2017-04-14T01:40:05.095Z,5.1
2017-04-14T01:41:07.490Z,5.1
2017-04-14T01:42:09.903Z,5.1
2017-04-14T01:43:12.314Z,5.1
2017-04-14T01:44:14.679Z,5.2
2017-04-14T01:45:17.083Z,5.1
2017-04-14T01:46:19.447Z,5.1
2017-04-14T01:47:21.814Z,5.1
2017-04-14T01:48:24.201Z,5.1
2017-04-14T01:49:26.623Z,5.2
2017-04-14T01:50:29.019Z,5.2
2017-04-14T01:51:31.467Z,5.2
2017-04-14T01:52:33.830Z,5.4
2017-04-14T01:53:36.213Z,5.3
2017-04-14T01:54:38.573Z,5.2
2017-04-14T01:55:40.993Z,5.3
2017-04-14T01:56:43.392Z,5.3
2017-04-14T01:57:45.809Z,5.4
2017-04-14T01:58:48.208Z,5.3
2017-04-14T01:59:50.584Z,5.3
2017-04-14T02:00:53.062Z,5.3
2017-04-14T02:01:55.445Z,5.3
2017-04-14T02:02:57.896Z,5.3
2017-04-14T02:04:00.317Z,5.3
2017-04-14T02:05:02.774Z,5.3
2017-04-14T02:06:05.192Z,5.4
2017-04-14T02:07:07.598Z,5.4
2017-04-14T02:08:09.988Z,5.4
2017-04-14T02:09:12.468Z,5.3
2017-04-14T02:10:14.892Z,5.4
2017-04-14T02:11:17.278Z,5.4
2017-04-14T02:12:19.677Z,5.4
2017-04-14T02:13:22.070Z,5.5
2017-04-14T02:14:24.516Z,5.5
2017-04-14T02:15:27.011Z,5.6
2017-04-14T02:16:29.529Z,5.7
2017-04-14T02:17:31.894Z,5.6
2017-04-14T02:18:34.298Z,5.6
2017-04-14T02:19:36.701Z,5.6
2017-04-14T02:20:39.147Z,5.5
2017-04-14T02:21:42.223Z,5.6
2017-04-14T02:22:44.630Z,5.6
2017-04-14T02:23:47.104Z,5.6
2017-04-14T02:24:49.518Z,5.7
2017-04-14T02:25:51.909Z,5.6
2017-04-14T02:26:54.313Z,5.4
2017-04-14T02:27:56.698Z,5.6
2017-04-14T02:28:59.070Z,5.5
2017-04-14T02:30:01.469Z,5.5
2017-04-14T02:31:03.871Z,5.4
2017-04-14T02:32:06.293Z,5.6
2017-04-14T02:33:08.723Z,5.6
2017-04-14T02:34:11.094Z,5.5
2017-04-14T02:35:13.479Z,5.6
2017-04-14T02:36:15.870Z,5.7
2017-04-14T02:37:18.275Z,5.7
2017-04-14T02:38:20.662Z,5.6
2017-04-14T02:39:23.071Z,5.6
2017-04-14T02:40:25.450Z,5.6
2017-04-14T02:41:27.832Z,5.6
2017-04-14T02:42:30.319Z,5.7
2017-04-14T02:43:32.693Z,5.6
2017-04-14T02:44:35.142Z,5.7
2017-04-14T02:45:37.532Z,5.7
2017-04-14T02:46:39.906Z,5.7
2017-04-14T02:47:42.333Z,5.7
2017-04-14T02:48:44.998Z,5.7
2017-04-14T02:49:47.378Z,5.6
2017-04-14T02:50:49.782Z,5.7
2017-04-14T02:51:52.198Z,5.7
2017-04-14T02:52:54.878Z,5.7
2017-04-14T02:53:57.306Z,5.8
2017-04-14T02:54:59.685Z,5.7
2017-04-14T02:56:02.074Z,5.7
2017-04-14T02:57:04.497Z,5.7
2017-04-14T02:58:06.908Z,5.7
2017-04-14T02:59:09.311Z,5.6
2017-04-14T03:00:11.703Z,5.7
2017-04-14T03:01:14.124Z,5.7
2017-04-14T03:02:16.517Z,5.7
2017-04-14T03:03:18.918Z,5.8
2017-04-14T03:04:21.381Z,5.8
2017-04-14T03:05:23.736Z,5.8
2017-04-14T03:06:26.115Z,5.9
2017-04-14T03:07:28.509Z,5.9
2017-04-14T03:08:30.875Z,5.7
2017-04-14T03:09:33.241Z,5.8
2017-04-14T03:10:35.601Z,5.8
2017-04-14T03:11:37.995Z,5.7
2017-04-14T03:12:40.391Z,5.7
2017-04-14T03:13:42.785Z,5.6
2017-04-14T03:14:45.173Z,5.8
2017-04-14T03:15:47.540Z,5.8
2017-04-14T03:16:49.952Z,5.7
2017-04-14T03:17:52.329Z,5.7
2017-04-14T03:18:54.716Z,5.7
2017-04-14T03:19:57.086Z,5.7
2017-04-14T03:20:59.537Z,5.7
2017-04-14T03:22:02.019Z,5.8
2017-04-14T03:23:04.446Z,5.7
2017-04-14T03:24:07.137Z,5.8
2017-04-14T03:25:09.651Z,5.8
2017-04-14T03:26:12.079Z,5.9
2017-04-14T03:27:14.545Z,5.8
2017-04-14T03:28:16.911Z,5.7
2017-04-14T03:29:19.398Z,5.7
2017-04-14T03:30:22.077Z,5.8
2017-04-14T03:31:24.518Z,5.9
2017-04-14T03:32:26.984Z,5.8
2017-04-14T03:33:29.463Z,5.7
2017-04-14T03:34:31.880Z,5.8
2017-04-14T03:36:45.731Z,5.7
2017-04-14T03:37:48.108Z,5.8
2017-04-14T03:38:50.494Z,5.8
2017-04-14T03:39:52.904Z,5.8
2017-04-14T03:40:55.479Z,5.8
2017-04-14T03:41:57.889Z,5.8
2017-04-14T03:43:00.288Z,5.8
2017-04-14T03:44:02.649Z,5.8
2017-04-14T03:45:05.020Z,5.8
2017-04-14T03:46:07.429Z,5.7
2017-04-14T03:47:09.811Z,5.7
2017-04-14T03:48:12.170Z,5.9
2017-04-14T03:49:14.584Z,5.7
2017-04-14T03:50:17.065Z,5.8
2017-04-14T03:51:19.412Z,5.8
2017-04-14T03:52:21.826Z,5.8
2017-04-14T03:53:24.210Z,5.7
2017-04-14T03:54:26.612Z,5.7
2017-04-14T03:55:29.049Z,5.7
2017-04-14T03:56:31.504Z,5.7
2017-04-14T03:57:33.865Z,5.7
2017-04-14T03:58:36.329Z,5.7
2017-04-14T03:59:38.765Z,5.6
2017-04-14T04:00:41.227Z,5.6
2017-04-14T04:01:43.644Z,5.6
2017-04-14T04:02:46.023Z,5.7
2017-04-14T04:03:48.442Z,5.5
2017-04-14T04:04:50.843Z,5.5
2017-04-14T04:05:53.248Z,5.6
2017-04-14T04:06:55.622Z,5.6
2017-04-14T04:07:58.094Z,5.6
2017-04-14T04:09:00.515Z,5.5
2017-04-14T04:10:02.909Z,5.5
2017-04-14T04:11:05.315Z,5.4
2017-04-14T04:12:07.708Z,5.4
2017-04-14T04:13:10.099Z,5.4
2017-04-14T04:14:12.476Z,5.5
2017-04-14T04:15:14.949Z,5.4
2017-04-14T04:16:17.363Z,5.5
2017-04-14T04:17:19.721Z,5.4
2017-04-14T04:18:22.108Z,5.5
2017-04-14T04:19:24.580Z,5.4
2017-04-14T04:20:26.961Z,5.5
2017-04-14T04:21:29.406Z,5.6
2017-04-14T04:22:31.763Z,5.5
2017-04-14T04:23:34.185Z,5.5
2017-04-14T04:24:36.556Z,5.4
2017-04-14T04:25:38.974Z,5.5
2017-04-14T04:26:41.383Z,5.4
2017-04-14T04:27:43.930Z,5.4
2017-04-14T04:28:46.327Z,5.4
2017-04-14T04:29:48.890Z,5.5
2017-04-14T04:30:51.302Z,5.5
2017-04-14T04:31:53.769Z,5.3
2017-04-14T04:32:56.170Z,5.4
2017-04-14T04:33:58.792Z,5.5
2017-04-14T04:35:01.273Z,5.4
2017-04-14T04:36:03.812Z,5.4
2017-04-14T04:37:06.323Z,5.5
2017-04-14T04:38:08.946Z,5.6
2017-04-14T04:39:11.512Z,5.5
2017-04-14T04:40:14.173Z,5.5
2017-04-14T04:41:16.667Z,5.5
2017-04-14T04:42:19.357Z,5.4
2017-04-14T04:43:21.826Z,5.4
2017-04-14T04:44:24.432Z,5.4
2017-04-14T04:45:27.019Z,5.5
2017-04-14T04:46:29.579Z,5.4
2017-04-14T04:47:32.022Z,5.4
2017-04-14T04:48:34.696Z,5.5
2017-04-14T04:49:37.212Z,5.4
2017-04-14T04:50:39.744Z,5.4
2017-04-14T04:51:42.577Z,5.6
2017-04-14T04:52:45.963Z,5.6
2017-04-14T04:53:48.373Z,5.6
2017-04-14T04:54:51.141Z,5.7
2017-04-14T04:55:53.606Z,5.6
2017-04-14T04:56:56.210Z,5.7
2017-04-14T04:57:58.966Z,5.5
2017-04-14T04:59:01.511Z,5.7
2017-04-14T05:00:04.030Z,5.6
2017-04-14T05:01:06.566Z,5.6
2017-04-14T05:02:09.026Z,5.7
2017-04-14T05:03:11.543Z,5.6
2017-04-14T05:04:13.942Z,5.6
2017-04-14T05:05:16.517Z,5.7
2017-04-14T05:06:18.959Z,5.6
2017-04-14T05:07:21.671Z,5.6
2017-04-14T05:08:24.177Z,5.6
2017-04-14T05:09:26.783Z,5.5
2017-04-14T05:10:29.234Z,5.5
2017-04-14T05:11:32.016Z,5.7
2017-04-14T05:12:34.441Z,5.8
2017-04-14T05:13:37.079Z,5.7
2017-04-14T05:14:39.596Z,5.7
2017-04-14T05:15:42.225Z,5.9
2017-04-14T05:16:44.632Z,5.8
2017-04-14T05:17:47.182Z,5.8
2017-04-14T05:18:49.637Z,5.8
2017-04-14T05:19:52.821Z,5.8
2017-04-14T05:20:56.278Z,5.7
2017-04-14T05:21:58.877Z,5.7
2017-04-14T05:23:01.292Z,5.6
2017-04-14T05:24:03.820Z,5.7
2017-04-14T05:25:06.220Z,5.8
2017-04-14T05:26:08.760Z,5.7
2017-04-14T05:27:11.224Z,5.7
2017-04-14T05:28:13.815Z,5.7
2017-04-14T05:29:16.872Z,5.7
2017-04-14T05:30:19.375Z,5.8
2017-04-14T05:31:21.772Z,5.7
2017-04-14T05:32:24.315Z,5.7
2017-04-14T05:33:26.781Z,5.8
2017-04-14T05:34:29.363Z,5.8
2017-04-14T05:35:31.781Z,5.9
2017-04-14T05:36:34.366Z,6
2017-04-14T05:37:36.807Z,5.9
2017-04-14T05:38:39.441Z,5.9
2017-04-14T05:39:41.949Z,5.9
2017-04-14T05:40:44.571Z,5.9
2017-04-14T05:41:47.002Z,6
2017-04-14T05:42:49.540Z,5.9
2017-04-14T05:43:52.023Z,6.1
2017-04-14T05:44:54.572Z,6.1
2017-04-14T05:45:57.153Z,6
2017-04-14T05:46:59.841Z,6.1
2017-04-14T05:48:02.274Z,6.2
2017-04-14T05:49:04.932Z,6.1
2017-04-14T05:50:07.449Z,6.2
2017-04-14T05:51:10.090Z,6.1
2017-04-14T05:52:12.544Z,6.2
2017-04-14T05:53:15.280Z,6.2
2017-04-14T05:54:17.729Z,6.1
2017-04-14T05:55:20.315Z,6.1
2017-04-14T05:56:22.800Z,6.1
2017-04-14T05:57:25.641Z,6.2
2017-04-14T05:58:28.210Z,6.2
2017-04-14T05:59:30.753Z,6.2
2017-04-14T06:00:33.500Z,6.2
2017-04-14T06:01:36.209Z,6.2
2017-04-14T06:02:38.712Z,6.1
2017-04-14T06:03:41.676Z,6.1
2017-04-14T06:04:44.134Z,6.3
2017-04-14T06:05:46.750Z,6.3
2017-04-14T06:06:49.154Z,6.3
2017-04-14T06:07:51.761Z,6.3
2017-04-14T06:08:54.210Z,6.4
2017-04-14T06:09:56.795Z,6.2
2017-04-14T06:10:59.362Z,6.4
2017-04-14T06:12:01.997Z,6.4
2017-04-14T06:13:04.540Z,6.4
2017-04-14T06:14:07.094Z,6.4
2017-04-14T06:15:09.560Z,6.5
2017-04-14T06:16:12.213Z,6.5
2017-04-14T06:17:14.698Z,6.5
2017-04-14T06:18:17.292Z,6.4
2017-04-14T06:19:19.819Z,6.6
2017-04-14T06:20:22.443Z,6.6
2017-04-14T06:21:24.995Z,6.5
2017-04-14T06:22:27.675Z,6.5
2017-04-14T06:23:30.110Z,6.3
2017-04-14T06:25:44.053Z,6.4
2017-04-14T06:26:47.031Z,6.5
2017-04-14T06:27:49.828Z,6.6
2017-04-14T06:28:52.230Z,6.6
2017-04-14T06:29:54.629Z,6.6
2017-04-14T06:30:57.039Z,6.5
2017-04-14T06:31:59.479Z,6.5
2017-04-14T06:33:01.974Z,6.6
2017-04-14T06:34:04.400Z,6.6
2017-04-14T06:35:06.810Z,6.7
2017-04-14T06:36:09.257Z,6.6
2017-04-14T06:37:11.709Z,6.6
2017-04-14T06:38:14.179Z,6.7
2017-04-14T06:39:16.601Z,6.8
2017-04-14T06:40:19.007Z,6.9
2017-04-14T06:41:21.411Z,6.8
2017-04-14T06:42:24.190Z,6.8
2017-04-14T06:43:26.620Z,7
2017-04-14T06:44:29.081Z,7.1
2017-04-14T06:45:31.464Z,7.3
2017-04-14T06:46:33.858Z,7.4
2017-04-14T06:47:36.320Z,7.5
2017-04-14T06:48:38.811Z,7.3
2017-04-14T06:49:41.258Z,7.3
2017-04-14T06:50:43.673Z,7.1
2017-04-14T06:51:46.067Z,7.4
2017-04-14T06:52:48.528Z,7.5
2017-04-14T06:53:51.027Z,7.7
2017-04-14T06:54:53.480Z,7.6
2017-04-14T06:55:55.857Z,7.6
2017-04-14T06:56:58.291Z,7.5
2017-04-14T06:58:00.746Z,7.4
2017-04-14T06:59:03.172Z,7.8
2017-04-14T07:00:05.562Z,8.1
2017-04-14T07:01:07.989Z,7.8
2017-04-14T07:02:10.403Z,7.7
2017-04-14T07:03:12.840Z,8
2017-04-14T07:04:15.237Z,8.1
2017-04-14T07:05:17.623Z,8.4
2017-04-14T07:06:20.080Z,8.4
2017-04-14T07:07:22.548Z,8.1
2017-04-14T07:08:24.940Z,7.9
2017-04-14T07:09:27.396Z,7.9
2017-04-14T07:10:29.870Z,8
2017-04-14T07:11:32.262Z,8
2017-04-14T07:12:34.712Z,8.1
2017-04-14T07:13:37.155Z,8.3
2017-04-14T07:14:39.610Z,7.8
2017-04-14T07:15:42.036Z,7.8
2017-04-14T07:16:44.500Z,8
2017-04-14T07:17:46.938Z,7.8
2017-04-14T07:18:49.426Z,7.8
2017-04-14T07:19:51.902Z,7.9
2017-04-14T07:20:54.378Z,8.2
2017-04-14T07:21:56.838Z,7.9
2017-04-14T07:22:59.276Z,8.3
2017-04-14T07:24:01.719Z,8.4
2017-04-14T07:25:04.514Z,8.6
2017-04-14T07:26:06.916Z,8.6
2017-04-14T07:27:09.391Z,8.6
2017-04-14T07:28:11.809Z,8.9
2017-04-14T07:29:14.236Z,9.2
2017-04-14T07:30:16.631Z,9.2
2017-04-14T07:31:19.877Z,9.4
2017-04-14T07:32:22.295Z,9.5
2017-04-14T07:33:24.788Z,9
2017-04-14T07:34:27.263Z,8.6
2017-04-14T07:35:29.801Z,8.3
2017-04-14T07:36:32.299Z,8.1
2017-04-14T07:37:34.864Z,8.2
2017-04-14T07:38:37.411Z,8.4
2017-04-14T07:39:39.990Z,8.7
2017-04-14T07:40:42.464Z,8.9
2017-04-14T07:41:45.113Z,8.9
2017-04-14T07:42:47.595Z,9.5
2017-04-14T07:43:50.191Z,9.7
2017-04-14T07:44:52.692Z,10.3
2017-04-14T07:45:55.253Z,11
2017-04-14T07:46:57.748Z,12.3
2017-04-14T07:48:00.411Z,14
2017-04-14T07:49:02.848Z,14.1
2017-04-14T07:50:05.596Z,13.1
2017-04-14T07:51:08.070Z,10.9
2017-04-14T07:52:10.710Z,10.3
2017-04-14T07:53:13.126Z,10.2
2017-04-14T07:54:15.683Z,10.2
2017-04-14T07:55:18.151Z,10.1
2017-04-14T07:56:20.959Z,10.6
2017-04-14T07:57:23.536Z,10.9
2017-04-14T07:58:26.256Z,10.9
2017-04-14T07:59:28.821Z,10.1
2017-04-14T08:00:31.967Z,9.7
2017-04-14T08:01:34.438Z,9.4
2017-04-14T08:02:37.021Z,9.1
2017-04-14T08:03:39.484Z,9.2
2017-04-14T08:04:42.154Z,9.3
2017-04-14T08:05:44.692Z,9.2
2017-04-14T08:06:47.277Z,9.7
2017-04-14T08:07:49.697Z,9.6
2017-04-14T08:08:52.258Z,10.1
2017-04-14T08:09:54.740Z,10.2
2017-04-14T08:10:57.366Z,10.7
2017-04-14T08:11:59.842Z,12.1
2017-04-14T08:13:02.629Z,12.5
2017-04-14T08:14:05.169Z,12.4
2017-04-14T08:15:07.780Z,12.4
2017-04-14T08:16:10.242Z,11.9
2017-04-14T08:17:13.006Z,11.1
2017-04-14T08:18:15.587Z,10.8
2017-04-14T08:19:18.067Z,10
2017-04-14T08:20:20.801Z,10.1
2017-04-14T08:21:23.510Z,9.8
2017-04-14T08:22:26.008Z,10.1
2017-04-14T08:23:28.653Z,9.8
2017-04-14T08:24:31.181Z,10.4
2017-04-14T08:25:33.833Z,11.2
2017-04-14T08:26:36.301Z,11
2017-04-14T08:27:39.029Z,10.3
2017-04-14T08:28:41.577Z,10.9
2017-04-14T08:29:44.135Z,10.1
2017-04-14T08:30:47.533Z,9.7
2017-04-14T08:31:49.980Z,9.7
2017-04-14T08:32:52.461Z,9.7
2017-04-14T08:33:55.031Z,11.2
2017-04-14T08:34:57.796Z,13.4
2017-04-14T08:36:01.849Z,14.9
2017-04-14T08:37:04.576Z,15.8
2017-04-14T08:38:07.067Z,17.2
2017-04-14T08:39:09.613Z,18.6
2017-04-14T08:40:12.127Z,15.4
2017-04-14T08:41:14.602Z,13.1
2017-04-14T08:42:17.166Z,13.1
2017-04-14T08:43:20.292Z,13.6
2017-04-14T08:44:22.698Z,12.2
2017-04-14T08:45:25.252Z,12
2017-04-14T08:46:27.692Z,11.9
2017-04-14T08:47:30.207Z,12.3
2017-04-14T08:48:32.708Z,12.6
2017-04-14T08:49:35.307Z,12.7
2017-04-14T08:50:38.575Z,12.6
2017-04-14T08:51:41.016Z,12.5
2017-04-14T08:52:43.582Z,11.7
2017-04-14T08:53:46.054Z,11.9
2017-04-14T08:54:48.670Z,11.4
2017-04-14T08:55:51.681Z,11.4
2017-04-14T08:56:54.158Z,11.9
2017-04-14T08:57:56.601Z,11.6
2017-04-14T08:58:59.174Z,12.2
2017-04-14T09:00:01.630Z,13.1
2017-04-14T09:01:04.436Z,13.6
2017-04-14T09:02:06.990Z,13.6
2017-04-14T09:03:09.565Z,14
2017-04-14T09:04:12.102Z,13.3
2017-04-14T09:05:14.584Z,13.3
2017-04-14T09:06:17.075Z,14
2017-04-14T09:07:19.525Z,13.8
2017-04-14T09:08:22.373Z,12.4
2017-04-14T09:09:25.042Z,12.4
2017-04-14T09:10:27.567Z,12
2017-04-14T09:11:30.076Z,12.1
2017-04-14T09:12:32.574Z,12.4
2017-04-14T09:13:35.150Z,13.4
2017-04-14T09:14:37.644Z,14.1
2017-04-14T09:15:40.238Z,14.3
2017-04-14T09:16:42.690Z,14.4
2017-04-14T09:17:45.242Z,14.8
2017-04-14T09:18:47.910Z,12.9
2017-04-14T09:19:50.396Z,12.5
2017-04-14T09:20:52.902Z,12.8
2017-04-14T09:21:55.417Z,12.7
2017-04-14T09:22:57.886Z,12.6
2017-04-14T09:24:00.425Z,14
2017-04-14T09:25:02.943Z,15.9
2017-04-14T09:26:05.409Z,15.8
2017-04-14T09:27:07.892Z,16.5
2017-04-14T09:28:10.584Z,16
2017-04-14T09:29:13.153Z,16.3
2017-04-14T09:30:15.886Z,17.5
2017-04-14T09:31:18.693Z,17.6
2017-04-14T09:32:21.224Z,18.8
2017-04-14T09:33:23.764Z,18.7
2017-04-14T09:34:26.335Z,18.8
2017-04-14T09:35:28.876Z,18.2
2017-04-14T09:36:31.455Z,17.2
2017-04-14T09:37:33.926Z,15.2
2017-04-14T09:38:36.541Z,16.4
2017-04-14T09:39:39.636Z,17.1
2017-04-14T09:40:42.213Z,17.3
2017-04-14T09:41:44.664Z,18.7
2017-04-14T09:42:47.310Z,19.7
2017-04-14T09:43:49.787Z,19
2017-04-14T09:44:52.355Z,19.6
2017-04-14T09:45:54.845Z,18.6
2017-04-14T09:46:57.474Z,19.6
2017-04-14T09:47:59.999Z,23.4
2017-04-14T09:49:02.584Z,21.8
2017-04-14T09:50:05.107Z,19.4
2017-04-14T09:51:07.696Z,19.7
2017-04-14T09:52:10.258Z,19.5
2017-04-14T09:53:12.808Z,19.3
2017-04-14T09:54:15.345Z,18.3
2017-04-14T09:55:17.852Z,20
2017-04-14T09:56:20.377Z,22
2017-04-14T09:57:23.183Z,21.6
2017-04-14T09:58:25.715Z,21
2017-04-14T09:59:28.199Z,20
2017-04-14T10:00:30.676Z,21.6
2017-04-14T10:01:33.302Z,23.5
2017-04-14T10:02:35.817Z,22.4
2017-04-14T10:03:38.447Z,25.1
2017-04-14T10:04:40.984Z,24
2017-04-14T10:05:43.614Z,24.4
2017-04-14T10:06:46.098Z,24.1
2017-04-14T10:07:48.849Z,26.6
2017-04-14T10:08:51.404Z,30
2017-04-14T10:09:53.964Z,26.1
2017-04-14T10:10:56.478Z,22.6
2017-04-14T10:11:59.301Z,20
2017-04-14T10:13:01.953Z,19.5
2017-04-14T10:14:04.584Z,21.4
2017-04-14T10:15:07.090Z,21
2017-04-14T10:16:09.655Z,23
2017-04-14T10:17:12.217Z,23.4
2017-04-14T10:18:14.743Z,22.4
2017-04-14T10:19:17.192Z,22.1
2017-04-14T10:20:19.857Z,27.6
2017-04-14T10:21:22.333Z,28.1
2017-04-14T10:22:24.871Z,26.7
2017-04-14T10:23:27.400Z,23.5
2017-04-14T10:24:30.072Z,24.7
2017-04-14T10:25:32.551Z,22.7
2017-04-14T10:26:35.380Z,22.2
2017-04-14T10:27:37.901Z,22.6
2017-04-14T10:28:40.492Z,24
2017-04-14T10:29:43.059Z,20.9
2017-04-14T10:30:45.786Z,20.8
2017-04-14T10:31:49.013Z,20.4
2017-04-14T10:32:51.666Z,20.6
2017-04-14T10:33:54.161Z,19.5
2017-04-14T10:34:56.696Z,20.6
2017-04-14T10:35:59.233Z,18.9
2017-04-14T10:37:01.974Z,19.5
2017-04-14T10:38:04.584Z,18.6
2017-04-14T10:39:07.074Z,17.9
2017-04-14T10:40:09.723Z,17.8
2017-04-14T10:41:12.460Z,17.5
2017-04-14T10:42:15.011Z,18
2017-04-14T10:43:17.573Z,17.7
2017-04-14T10:44:20.064Z,17
2017-04-14T10:45:22.602Z,16.8
2017-04-14T10:46:25.077Z,17.9
2017-04-14T10:47:27.724Z,17.8
2017-04-14T10:48:30.266Z,17.9
2017-04-14T10:49:32.812Z,18.9
2017-04-14T10:50:35.333Z,19.5
2017-04-14T10:51:38.049Z,20.1
2017-04-14T10:52:40.545Z,19.1
2017-04-14T10:53:43.193Z,20.9
2017-04-14T10:54:46.234Z,21
2017-04-14T10:55:48.848Z,20.1
2017-04-14T10:56:51.411Z,19.3
2017-04-14T10:57:54.046Z,20.2
2017-04-14T10:58:56.518Z,20.4
2017-04-14T10:59:59.053Z,23
2017-04-14T11:01:01.603Z,21.2
2017-04-14T11:02:04.258Z,21.2
2017-04-14T11:03:06.809Z,20.2
2017-04-14T11:04:09.592Z,24.9
2017-04-14T11:05:12.093Z,22.6
2017-04-14T11:06:14.628Z,23.6
2017-04-14T11:07:17.206Z,24.6
2017-04-14T11:08:20.416Z,28.2
2017-04-14T11:09:22.981Z,31.9
2017-04-14T11:10:26.213Z,32.2
2017-04-14T11:11:28.902Z,32
2017-04-14T11:12:31.417Z,27.8
2017-04-14T11:13:34.200Z,26.4
2017-04-14T11:14:36.852Z,24.3
2017-04-14T11:15:39.435Z,24.4
2017-04-14T11:16:42.051Z,22.3
2017-04-14T11:17:44.475Z,22.4
2017-04-14T11:18:47.089Z,22.8
2017-04-14T11:19:49.620Z,20.5
2017-04-14T11:20:52.180Z,20
2017-04-14T11:21:54.701Z,20.3
2017-04-14T11:22:57.219Z,18.6
2017-04-14T11:23:59.880Z,19.1
2017-04-14T11:25:02.571Z,18.7
2017-04-14T11:26:05.178Z,16.8
2017-04-14T11:27:07.737Z,16.7
2017-04-14T11:28:10.377Z,16.1
2017-04-14T11:29:13.014Z,16.2
2017-04-14T11:30:15.606Z,15.9
2017-04-14T11:31:18.231Z,16.3
2017-04-14T11:32:20.789Z,15.5
2017-04-14T11:33:23.300Z,15.4
2017-04-14T11:34:25.796Z,15.1
2017-04-14T11:35:28.293Z,15.4
2017-04-14T11:36:30.879Z,15.3
2017-04-14T11:37:33.533Z,15.2
2017-04-14T11:38:36.087Z,15.3
2017-04-14T11:39:38.608Z,15.1
2017-04-14T11:40:41.174Z,15.1
2017-04-14T11:41:43.720Z,15.1
2017-04-14T11:42:46.261Z,15
2017-04-14T11:43:48.716Z,14.9
2017-04-14T11:44:51.303Z,16.4
2017-04-14T11:45:53.786Z,16.5
2017-04-14T11:46:56.270Z,16.6
2017-04-14T11:47:58.804Z,15.5
2017-04-14T11:49:01.393Z,15.7
2017-04-14T11:50:03.902Z,15.5
2017-04-14T11:51:06.404Z,15.2
2017-04-14T11:52:08.988Z,15.4
2017-04-14T11:53:11.931Z,15.6
2017-04-14T11:54:14.500Z,16
2017-04-14T11:55:17.098Z,16.5
2017-04-14T11:56:19.889Z,16.6
2017-04-14T11:57:23.412Z,16.8
2017-04-14T11:58:25.950Z,16.7
2017-04-14T11:59:28.586Z,16.5
2017-04-14T12:00:31.317Z,16.7
2017-04-14T12:01:33.855Z,15.4
2017-04-14T12:02:36.370Z,15.7
2017-04-14T12:03:38.952Z,15.8
2017-04-14T12:04:41.432Z,16.4
2017-04-14T12:05:44.074Z,15.9
2017-04-14T12:06:46.861Z,15.2
2017-04-14T12:07:49.389Z,15.1
2017-04-14T12:08:52.469Z,15.4
2017-04-14T12:09:54.944Z,15.9
2017-04-14T12:10:57.458Z,15.3
2017-04-14T12:11:59.955Z,15.3
2017-04-14T12:13:02.448Z,15.8
2017-04-14T12:14:04.994Z,15.7
2017-04-14T12:15:07.523Z,15.6
2017-04-14T12:16:10.077Z,15.7
2017-04-14T12:17:12.556Z,15.4
2017-04-14T12:18:15.039Z,14.9
2017-04-14T12:19:17.663Z,15.1
2017-04-14T12:20:20.216Z,14.7
2017-04-14T12:21:22.757Z,14.4
2017-04-14T12:22:25.297Z,14.3
2017-04-14T12:23:27.758Z,14.5
2017-04-14T12:24:30.257Z,13.9
2017-04-14T12:25:32.742Z,13.9
2017-04-14T12:26:35.210Z,14.4
2017-04-14T12:27:37.706Z,14.2
2017-04-14T12:28:40.208Z,13.6
2017-04-14T12:29:42.721Z,14
2017-04-14T12:30:45.270Z,13.8
2017-04-14T12:31:47.798Z,13.4
2017-04-14T12:32:50.418Z,12.6
2017-04-14T12:33:52.900Z,12.8
2017-04-14T12:34:55.404Z,12.7
2017-04-14T12:35:57.974Z,12.3
2017-04-14T12:37:00.498Z,12.4
2017-04-14T12:38:03.006Z,12.6
2017-04-14T12:39:05.510Z,12.8
2017-04-14T12:40:07.994Z,13
2017-04-14T12:41:10.578Z,12.6
2017-04-14T12:42:13.128Z,12.6
2017-04-14T12:43:15.593Z,12.6
2017-04-14T12:44:18.202Z,12.8
2017-04-14T12:45:20.803Z,12.9
2017-04-14T12:46:23.280Z,12.4
2017-04-14T12:47:25.784Z,12.6
2017-04-14T12:48:28.291Z,12.4
2017-04-14T12:49:30.832Z,12.6
2017-04-14T12:50:33.407Z,12.4
2017-04-14T12:51:35.953Z,12.2
2017-04-14T12:52:39.752Z,12.4
2017-04-14T12:53:42.641Z,12.4
2017-04-14T12:54:45.164Z,12
2017-04-14T12:55:47.723Z,12.3
2017-04-14T12:56:50.374Z,12.4
2017-04-14T12:57:53.063Z,12.2
2017-04-14T12:58:55.788Z,12.3
2017-04-14T12:59:58.243Z,12.1
2017-04-14T13:01:00.769Z,12.3
2017-04-14T13:02:03.346Z,11.9
2017-04-14T13:03:05.934Z,11.8
2017-04-14T13:04:08.444Z,11.6
2017-04-14T13:05:11.069Z,11.9
2017-04-14T13:06:13.617Z,11.9
2017-04-14T13:07:16.216Z,11.9
2017-04-14T13:08:18.876Z,11.6
2017-04-14T13:09:21.406Z,11.7
2017-04-14T13:10:23.984Z,11.9
2017-04-14T13:11:26.605Z,12.2
2017-04-14T13:12:29.112Z,11.7
2017-04-14T13:13:32.868Z,12
2017-04-14T13:14:35.584Z,12.1
2017-04-14T13:15:38.242Z,12.2
2017-04-14T13:16:40.739Z,12.3
2017-04-14T13:17:43.271Z,12.4
2017-04-14T13:18:46.364Z,12.4
2017-04-14T13:19:48.989Z,12.4
2017-04-14T13:20:51.507Z,12.2
2017-04-14T13:21:54.041Z,11.8
2017-04-14T13:22:56.538Z,12.6
2017-04-14T13:23:59.126Z,12.6
2017-04-14T13:25:01.820Z,12.4
2017-04-14T13:26:04.964Z,12.1
2017-04-14T13:27:07.563Z,12.1
2017-04-14T13:28:10.088Z,12.1
2017-04-14T13:29:12.577Z,12.3
2017-04-14T13:30:15.072Z,12.7
2017-04-14T13:31:17.617Z,12.3
2017-04-14T13:32:20.147Z,12.6
2017-04-14T13:33:22.659Z,12.6
2017-04-14T13:34:25.226Z,12.5
2017-04-14T13:35:27.793Z,12.2
2017-04-14T13:36:30.382Z,12
2017-04-14T13:37:32.960Z,11.9
2017-04-14T13:38:35.487Z,11.7
2017-04-14T13:39:39.159Z,12.2
2017-04-14T13:40:41.748Z,12
2017-04-14T13:41:44.250Z,11.6
2017-04-14T13:42:46.789Z,11.7
2017-04-14T13:43:49.374Z,11.6
2017-04-14T13:44:51.954Z,11.5
2017-04-14T13:45:54.493Z,11.6
2017-04-14T13:46:57.028Z,11.7
2017-04-14T13:47:59.664Z,11.7
2017-04-14T13:49:02.797Z,11.6
2017-04-14T13:50:05.377Z,11.5
2017-04-14T13:51:09.160Z,11.6
2017-04-14T13:52:11.704Z,11.6
2017-04-14T13:53:14.299Z,11.3
2017-04-14T13:54:16.842Z,11.2
2017-04-14T13:55:19.423Z,11.2
2017-04-14T13:56:21.933Z,11.3
2017-04-14T13:57:26.252Z,11.2
2017-04-14T13:58:28.850Z,11.1
2017-04-14T13:59:31.457Z,11.1
2017-04-14T14:00:35.167Z,11
2017-04-14T14:01:37.816Z,11
2017-04-14T14:02:40.402Z,11.2
2017-04-14T14:03:42.985Z,11.2
2017-04-14T14:04:45.547Z,11.1
2017-04-14T14:05:48.208Z,11.1
2017-04-14T14:06:50.762Z,11.1
2017-04-14T14:07:53.334Z,11
2017-04-14T14:08:55.964Z,11.1
2017-04-14T14:09:58.594Z,11.6
2017-04-14T14:11:01.407Z,11.5
2017-04-14T14:12:04.164Z,11.4
2017-04-14T14:13:06.878Z,11.2
2017-04-14T14:14:09.454Z,11.4